sensor_id;sensor_type;location;lat;lon;timestamp;pressure;altitude;pressure_sealevel;temperature;humidity
29839;BME280;18669;53.356;-1.464;2023-02-28T00:01:05;102514.19;;;7.21;100.00
29839;BME280;18669;53.356;-1.464;2023-02-28T00:03:31;102506.34;;;7.21;100.00
29839;BME280;18669;53.356;-1.464;2023-02-28T00:06:05;102511.88;;;7.34;100.00
29839;BME280;18669;53.356;-1.464;2023-02-28T00:08:32;102511.44;;;7.15;100.00
29839;BME280;18669;53.356;-1.464;2023-02-28T00:11:08;102516.06;;;7.27;100.00
29839;BME280;18669;53.356;-1.464;2023-02-28T00:13:36;102513.19;;;7.16;100.00
29839;BME280;18669;53.356;-1.464;2023-02-28T00:16:08;102514.25;;;7.23;100.00
29839;BME280;18669;53.356;-1.464;2023-02-28T00:18:35;102508.03;;;7.18;100.00
29839;BME280;18669;53.356;-1.464;2023-02-28T00:21:01;102517.19;;;7.00;100.00
29839;BME280;18669;53.356;-1.464;2023-02-28T00:23:27;102515.66;;;7.10;100.00
29839;BME280;18669;53.356;-1.464;2023-02-28T00:25:54;102512.19;;;7.11;100.00
29839;BME280;18669;53.356;-1.464;2023-02-28T00:28:20;102521.72;;;7.07;100.00
29839;BME280;18669;53.356;-1.464;2023-02-28T00:30:46;102523.88;;;7.24;100.00
29839;BME280;18669;53.356;-1.464;2023-02-28T00:33:12;102520.78;;;7.04;100.00
29839;BME280;18669;53.356;-1.464;2023-02-28T00:35:38;102525.78;;;6.94;100.00
29839;BME280;18669;53.356;-1.464;2023-02-28T00:38:04;102521.22;;;6.87;100.00
29839;BME280;18669;53.356;-1.464;2023-02-28T00:40:30;102528.38;;;6.94;100.00
29839;BME280;18669;53.356;-1.464;2023-02-28T00:42:56;102530.25;;;6.98;100.00
29839;BME280;18669;53.356;-1.464;2023-02-28T00:45:22;102528.50;;;6.99;100.00
29839;BME280;18669;53.356;-1.464;2023-02-28T00:47:49;102534.88;;;7.10;100.00
29839;BME280;18669;53.356;-1.464;2023-02-28T00:50:19;102532.56;;;7.23;100.00
29839;BME280;18669;53.356;-1.464;2023-02-28T00:52:46;102533.28;;;7.15;100.00
29839;BME280;18669;53.356;-1.464;2023-02-28T00:55:12;102529.69;;;7.12;100.00
29839;BME280;18669;53.356;-1.464;2023-02-28T00:57:39;102536.81;;;7.18;100.00
29839;BME280;18669;53.356;-1.464;2023-02-28T01:00:06;102541.31;;;7.25;100.00
29839;BME280;18669;53.356;-1.464;2023-02-28T01:02:33;102534.19;;;7.18;100.00
29839;BME280;18669;53.356;-1.464;2023-02-28T01:04:59;102526.22;;;7.13;100.00
29839;BME280;18669;53.356;-1.464;2023-02-28T01:07:25;102535.91;;;7.17;100.00
29839;BME280;18669;53.356;-1.464;2023-02-28T01:09:51;102534.59;;;7.35;100.00
29839;BME280;18669;53.356;-1.464;2023-02-28T01:12:16;102535.88;;;7.15;100.00
29839;BME280;18669;53.356;-1.464;2023-02-28T01:14:42;102534.97;;;7.13;100.00
29839;BME280;18669;53.356;-1.464;2023-02-28T01:17:09;102532.28;;;7.10;100.00
29839;BME280;18669;53.356;-1.464;2023-02-28T01:19:34;102523.97;;;7.28;100.00
29839;BME280;18669;53.356;-1.464;2023-02-28T01:22:05;102532.63;;;7.26;100.00
29839;BME280;18669;53.356;-1.464;2023-02-28T01:24:32;102541.16;;;7.17;100.00
29839;BME280;18669;53.356;-1.464;2023-02-28T01:26:59;102525.28;;;7.11;100.00
29839;BME280;18669;53.356;-1.464;2023-02-28T01:29:25;102532.94;;;7.01;100.00
29839;BME280;18669;53.356;-1.464;2023-02-28T01:31:50;102535.16;;;7.21;100.00
29839;BME280;18669;53.356;-1.464;2023-02-28T01:34:17;102538.28;;;7.08;100.00
29839;BME280;18669;53.356;-1.464;2023-02-28T01:36:45;102528.66;;;7.05;100.00
29839;BME280;18669;53.356;-1.464;2023-02-28T01:39:11;102532.22;;;7.09;100.00
29839;BME280;18669;53.356;-1.464;2023-02-28T01:41:39;102522.66;;;7.09;100.00
29839;BME280;18669;53.356;-1.464;2023-02-28T01:46:51;102527.56;;;6.97;100.00
29839;BME280;18669;53.356;-1.464;2023-02-28T01:49:17;102522.41;;;7.00;100.00
29839;BME280;18669;53.356;-1.464;2023-02-28T01:51:48;102525.09;;;7.01;100.00
29839;BME280;18669;53.356;-1.464;2023-02-28T01:54:21;102528.63;;;7.04;100.00
29839;BME280;18669;53.356;-1.464;2023-02-28T01:56:56;102523.16;;;6.94;100.00
29839;BME280;18669;53.356;-1.464;2023-02-28T02:01:58;102524.44;;;6.77;100.00
29839;BME280;18669;53.356;-1.464;2023-02-28T02:04:30;102526.78;;;6.99;100.00
29839;BME280;18669;53.356;-1.464;2023-02-28T02:06:58;102525.72;;;6.93;100.00
29839;BME280;18669;53.356;-1.464;2023-02-28T02:09:24;102516.69;;;6.80;100.00
29839;BME280;18669;53.356;-1.464;2023-02-28T02:11:50;102524.50;;;6.78;100.00
29839;BME280;18669;53.356;-1.464;2023-02-28T02:17:04;102517.16;;;6.98;100.00
29839;BME280;18669;53.356;-1.464;2023-02-28T02:33:25;102519.56;;;6.91;100.00
29839;BME280;18669;53.356;-1.464;2023-02-28T02:43:35;102533.38;;;6.85;100.00
29839;BME280;18669;53.356;-1.464;2023-02-28T02:46:19;102520.72;;;7.02;100.00
29839;BME280;18669;53.356;-1.464;2023-02-28T02:48:46;102522.50;;;7.03;100.00
29839;BME280;18669;53.356;-1.464;2023-02-28T02:51:18;102522.38;;;6.98;100.00
29839;BME280;18669;53.356;-1.464;2023-02-28T02:53:58;102526.00;;;7.04;100.00
29839;BME280;18669;53.356;-1.464;2023-02-28T02:56:28;102518.78;;;6.93;100.00
29839;BME280;18669;53.356;-1.464;2023-02-28T02:59:01;102518.03;;;6.99;100.00
29839;BME280;18669;53.356;-1.464;2023-02-28T03:01:28;102518.88;;;6.98;100.00
29839;BME280;18669;53.356;-1.464;2023-02-28T03:04:01;102517.06;;;6.95;100.00
29839;BME280;18669;53.356;-1.464;2023-02-28T03:06:28;102518.69;;;6.90;100.00
29839;BME280;18669;53.356;-1.464;2023-02-28T03:08:54;102516.25;;;6.98;100.00
29839;BME280;18669;53.356;-1.464;2023-02-28T03:11:20;102513.19;;;6.79;100.00
29839;BME280;18669;53.356;-1.464;2023-02-28T03:24:10;102508.03;;;6.82;100.00
29839;BME280;18669;53.356;-1.464;2023-02-28T03:26:50;102513.38;;;6.87;100.00
29839;BME280;18669;53.356;-1.464;2023-02-28T03:29:49;102516.91;;;6.88;100.00
29839;BME280;18669;53.356;-1.464;2023-02-28T03:32:33;102515.88;;;6.82;100.00
29839;BME280;18669;53.356;-1.464;2023-02-28T03:35:08;102518.16;;;6.68;100.00
29839;BME280;18669;53.356;-1.464;2023-02-28T03:37:40;102513.06;;;6.75;100.00
29839;BME280;18669;53.356;-1.464;2023-02-28T03:40:14;102514.97;;;6.82;100.00
29839;BME280;18669;53.356;-1.464;2023-02-28T03:42:43;102511.66;;;6.88;100.00
29839;BME280;18669;53.356;-1.464;2023-02-28T03:45:14;102513.97;;;6.77;100.00
29839;BME280;18669;53.356;-1.464;2023-02-28T03:47:52;102519.78;;;6.65;100.00
29839;BME280;18669;53.356;-1.464;2023-02-28T03:50:46;102516.84;;;6.86;100.00
29839;BME280;18669;53.356;-1.464;2023-02-28T03:53:30;102513.19;;;6.79;100.00
29839;BME280;18669;53.356;-1.464;2023-02-28T03:59:07;102514.97;;;6.80;100.00
29839;BME280;18669;53.356;-1.464;2023-02-28T04:01:42;102502.38;;;6.65;100.00
29839;BME280;18669;53.356;-1.464;2023-02-28T04:04:10;102501.56;;;6.68;100.00
29839;BME280;18669;53.356;-1.464;2023-02-28T04:06:37;102495.38;;;6.64;100.00
29839;BME280;18669;53.356;-1.464;2023-02-28T04:09:04;102513.88;;;6.72;100.00
29839;BME280;18669;53.356;-1.464;2023-02-28T04:11:35;102508.72;;;6.75;100.00
29839;BME280;18669;53.356;-1.464;2023-02-28T04:14:05;102508.06;;;6.84;100.00
29839;BME280;18669;53.356;-1.464;2023-02-28T04:16:33;102516.03;;;6.89;100.00
29839;BME280;18669;53.356;-1.464;2023-02-28T04:19:00;102519.50;;;6.88;100.00
29839;BME280;18669;53.356;-1.464;2023-02-28T04:21:36;102521.47;;;6.96;100.00
29839;BME280;18669;53.356;-1.464;2023-02-28T04:24:03;102519.63;;;6.92;100.00
29839;BME280;18669;53.356;-1.464;2023-02-28T04:26:30;102524.66;;;6.84;100.00
29839;BME280;18669;53.356;-1.464;2023-02-28T04:28:57;102525.38;;;6.79;100.00
29839;BME280;18669;53.356;-1.464;2023-02-28T04:31:23;102523.72;;;6.82;100.00
29839;BME280;18669;53.356;-1.464;2023-02-28T04:33:49;102522.06;;;6.86;100.00
29839;BME280;18669;53.356;-1.464;2023-02-28T04:36:15;102522.06;;;6.86;100.00
29839;BME280;18669;53.356;-1.464;2023-02-28T04:38:44;102519.19;;;6.75;100.00
29839;BME280;18669;53.356;-1.464;2023-02-28T04:41:11;102526.97;;;6.74;100.00
29839;BME280;18669;53.356;-1.464;2023-02-28T04:43:37;102519.22;;;6.77;100.00
29839;BME280;18669;53.356;-1.464;2023-02-28T04:46:04;102521.97;;;6.81;100.00
29839;BME280;18669;53.356;-1.464;2023-02-28T04:48:33;102522.81;;;6.80;100.00
29839;BME280;18669;53.356;-1.464;2023-02-28T04:51:06;102532.44;;;6.81;100.00
29839;BME280;18669;53.356;-1.464;2023-02-28T04:53:33;102525.44;;;6.82;100.00
29839;BME280;18669;53.356;-1.464;2023-02-28T04:55:59;102522.72;;;6.77;100.00
29839;BME280;18669;53.356;-1.464;2023-02-28T04:58:25;102531.19;;;7.02;100.00
29839;BME280;18669;53.356;-1.464;2023-02-28T05:00:52;102529.03;;;6.85;100.00
29839;BME280;18669;53.356;-1.464;2023-02-28T05:03:19;102515.91;;;6.84;100.00
29839;BME280;18669;53.356;-1.464;2023-02-28T05:05:46;102519.44;;;6.86;100.00
29839;BME280;18669;53.356;-1.464;2023-02-28T05:08:12;102526.19;;;6.76;100.00
29839;BME280;18669;53.356;-1.464;2023-02-28T05:10:38;102520.63;;;6.64;100.00
29839;BME280;18669;53.356;-1.464;2023-02-28T05:13:04;102525.44;;;6.82;100.00
29839;BME280;18669;53.356;-1.464;2023-02-28T05:15:30;102524.09;;;6.63;100.00
29839;BME280;18669;53.356;-1.464;2023-02-28T05:17:56;102532.09;;;6.69;100.00
29839;BME280;18669;53.356;-1.464;2023-02-28T05:20:22;102526.03;;;6.70;100.00
29839;BME280;18669;53.356;-1.464;2023-02-28T05:22:49;102525.00;;;6.65;100.00
29839;BME280;18669;53.356;-1.464;2023-02-28T05:25:18;102526.59;;;6.58;100.00
29839;BME280;18669;53.356;-1.464;2023-02-28T05:27:45;102523.22;;;6.62;100.00
29839;BME280;18669;53.356;-1.464;2023-02-28T05:30:11;102522.00;;;6.83;100.00
29839;BME280;18669;53.356;-1.464;2023-02-28T05:32:38;102525.19;;;6.71;100.00
29839;BME280;18669;53.356;-1.464;2023-02-28T05:35:10;102529.06;;;6.53;100.00
29839;BME280;18669;53.356;-1.464;2023-02-28T05:37:37;102526.59;;;6.58;100.00
29839;BME280;18669;53.356;-1.464;2023-02-28T05:40:04;102522.97;;;6.53;100.00
29839;BME280;18669;53.356;-1.464;2023-02-28T05:42:37;102527.25;;;6.51;100.00
29839;BME280;18669;53.356;-1.464;2023-02-28T05:45:04;102538.09;;;6.65;100.00
29839;BME280;18669;53.356;-1.464;2023-02-28T05:47:30;102540.50;;;6.57;100.00
29839;BME280;18669;53.356;-1.464;2023-02-28T05:49:56;102530.50;;;6.74;100.00
29839;BME280;18669;53.356;-1.464;2023-02-28T05:52:22;102532.50;;;6.51;100.00
29839;BME280;18669;53.356;-1.464;2023-02-28T05:54:49;102541.34;;;6.56;100.00
29839;BME280;18669;53.356;-1.464;2023-02-28T05:57:15;102537.16;;;6.63;100.00
29839;BME280;18669;53.356;-1.464;2023-02-28T05:59:41;102530.22;;;6.63;100.00
29839;BME280;18669;53.356;-1.464;2023-02-28T06:02:15;102534.78;;;6.70;100.00
29839;BME280;18669;53.356;-1.464;2023-02-28T06:04:42;102527.63;;;6.65;100.00
29839;BME280;18669;53.356;-1.464;2023-02-28T06:07:09;102534.53;;;6.61;100.00
29839;BME280;18669;53.356;-1.464;2023-02-28T06:09:36;102530.97;;;6.59;100.00
29839;BME280;18669;53.356;-1.464;2023-02-28T06:12:04;102535.63;;;6.69;100.00
29839;BME280;18669;53.356;-1.464;2023-02-28T06:14:32;102528.75;;;6.75;100.00
29839;BME280;18669;53.356;-1.464;2023-02-28T06:16:59;102529.47;;;6.67;100.00
29839;BME280;18669;53.356;-1.464;2023-02-28T06:19:26;102525.94;;;6.67;100.00
29839;BME280;18669;53.356;-1.464;2023-02-28T06:21:53;102525.09;;;6.68;100.00
29839;BME280;18669;53.356;-1.464;2023-02-28T06:24:21;102532.91;;;6.66;100.00
29839;BME280;18669;53.356;-1.464;2023-02-28T06:26:47;102530.84;;;6.54;100.00
29839;BME280;18669;53.356;-1.464;2023-02-28T06:29:13;102526.09;;;6.73;100.00
29839;BME280;18669;53.356;-1.464;2023-02-28T06:31:43;102532.19;;;6.72;100.00
29839;BME280;18669;53.356;-1.464;2023-02-28T06:34:12;102535.66;;;6.72;100.00
29839;BME280;18669;53.356;-1.464;2023-02-28T06:36:40;102531.44;;;6.78;100.00
29839;BME280;18669;53.356;-1.464;2023-02-28T06:39:07;102532.34;;;6.78;100.00
29839;BME280;18669;53.356;-1.464;2023-02-28T06:41:33;102539.28;;;6.76;100.00
29839;BME280;18669;53.356;-1.464;2023-02-28T06:44:04;102542.72;;;6.75;100.00
29839;BME280;18669;53.356;-1.464;2023-02-28T06:46:32;102544.53;;;6.78;100.00
29839;BME280;18669;53.356;-1.464;2023-02-28T06:48:58;102541.88;;;6.76;100.00
29839;BME280;18669;53.356;-1.464;2023-02-28T06:51:25;102542.56;;;6.69;100.00
29839;BME280;18669;53.356;-1.464;2023-02-28T06:53:53;102546.00;;;6.66;100.00
29839;BME280;18669;53.356;-1.464;2023-02-28T06:56:19;102546.28;;;6.77;100.00
29839;BME280;18669;53.356;-1.464;2023-02-28T06:58:50;102555.75;;;6.74;100.00
29839;BME280;18669;53.356;-1.464;2023-02-28T07:01:17;102550.50;;;6.72;100.00
29839;BME280;18669;53.356;-1.464;2023-02-28T07:03:43;102551.44;;;6.76;100.00
29839;BME280;18669;53.356;-1.464;2023-02-28T07:06:09;102553.94;;;6.69;100.00
29839;BME280;18669;53.356;-1.464;2023-02-28T07:08:35;102552.19;;;6.71;100.00
29839;BME280;18669;53.356;-1.464;2023-02-28T07:11:02;102565.44;;;6.76;100.00
29839;BME280;18669;53.356;-1.464;2023-02-28T07:13:28;102555.75;;;6.74;100.00
29839;BME280;18669;53.356;-1.464;2023-02-28T07:16:03;102559.63;;;6.88;100.00
29839;BME280;18669;53.356;-1.464;2023-02-28T07:18:30;102565.28;;;6.71;100.00
29839;BME280;18669;53.356;-1.464;2023-02-28T07:20:56;102576.66;;;6.72;100.00
29839;BME280;18669;53.356;-1.464;2023-02-28T07:23:22;102571.94;;;6.92;100.00
29839;BME280;18669;53.356;-1.464;2023-02-28T07:25:50;102571.00;;;6.89;100.00
29839;BME280;18669;53.356;-1.464;2023-02-28T07:28:16;102569.13;;;6.84;100.00
29839;BME280;18669;53.356;-1.464;2023-02-28T07:30:42;102579.13;;;7.01;100.00
29839;BME280;18669;53.356;-1.464;2023-02-28T07:33:08;102583.00;;;6.82;100.00
29839;BME280;18669;53.356;-1.464;2023-02-28T07:35:34;102577.53;;;6.72;100.00
29839;BME280;18669;53.356;-1.464;2023-02-28T07:38:01;102575.00;;;6.76;100.00
29839;BME280;18669;53.356;-1.464;2023-02-28T07:40:27;102576.75;;;6.77;100.00
29839;BME280;18669;53.356;-1.464;2023-02-28T07:42:53;102581.69;;;6.64;100.00
29839;BME280;18669;53.356;-1.464;2023-02-28T07:45:19;102583.56;;;6.70;100.00
29839;BME280;18669;53.356;-1.464;2023-02-28T07:47:45;102569.91;;;6.82;100.00
29839;BME280;18669;53.356;-1.464;2023-02-28T07:50:13;102579.38;;;6.77;100.00
29839;BME280;18669;53.356;-1.464;2023-02-28T07:52:40;102585.22;;;6.66;100.00
29839;BME280;18669;53.356;-1.464;2023-02-28T07:55:08;102587.19;;;6.75;100.00
29839;BME280;18669;53.356;-1.464;2023-02-28T07:57:35;102586.28;;;6.75;100.00
29839;BME280;18669;53.356;-1.464;2023-02-28T08:00:03;102586.56;;;6.84;100.00
29839;BME280;18669;53.356;-1.464;2023-02-28T08:02:30;102578.59;;;6.79;100.00
29839;BME280;18669;53.356;-1.464;2023-02-28T08:04:56;102581.84;;;6.70;100.00
29839;BME280;18669;53.356;-1.464;2023-02-28T08:07:22;102584.59;;;6.77;100.00
29839;BME280;18669;53.356;-1.464;2023-02-28T08:09:48;102581.22;;;6.79;100.00
29839;BME280;18669;53.356;-1.464;2023-02-28T08:12:14;102581.22;;;6.81;100.00
29839;BME280;18669;53.356;-1.464;2023-02-28T08:14:40;102572.72;;;6.88;100.00
29839;BME280;18669;53.356;-1.464;2023-02-28T08:17:06;102579.81;;;6.94;100.00
29839;BME280;18669;53.356;-1.464;2023-02-28T08:19:32;102581.22;;;6.79;100.00
29839;BME280;18669;53.356;-1.464;2023-02-28T08:21:58;102579.53;;;6.81;100.00
29839;BME280;18669;53.356;-1.464;2023-02-28T08:24:24;102577.44;;;7.03;100.00
29839;BME280;18669;53.356;-1.464;2023-02-28T08:26:50;102583.25;;;6.91;100.00
29839;BME280;18669;53.356;-1.464;2023-02-28T08:29:16;102588.13;;;6.77;100.00
29839;BME280;18669;53.356;-1.464;2023-02-28T08:31:42;102579.91;;;6.63;100.00
29839;BME280;18669;53.356;-1.464;2023-02-28T08:34:09;102587.22;;;6.77;100.00
29839;BME280;18669;53.356;-1.464;2023-02-28T08:36:36;102595.00;;;6.74;100.00
29839;BME280;18669;53.356;-1.464;2023-02-28T08:39:03;102595.06;;;6.77;100.00
29839;BME280;18669;53.356;-1.464;2023-02-28T08:41:29;102590.06;;;6.84;100.00
29839;BME280;18669;53.356;-1.464;2023-02-28T08:43:56;102582.16;;;6.83;100.00
29839;BME280;18669;53.356;-1.464;2023-02-28T08:46:22;102599.69;;;6.85;100.00
29839;BME280;18669;53.356;-1.464;2023-02-28T08:48:51;102602.41;;;6.90;100.00
29839;BME280;18669;53.356;-1.464;2023-02-28T08:51:18;102594.31;;;6.81;100.00
29839;BME280;18669;53.356;-1.464;2023-02-28T08:53:47;102595.81;;;6.72;100.00
29839;BME280;18669;53.356;-1.464;2023-02-28T08:56:15;102591.78;;;6.84;100.00
29839;BME280;18669;53.356;-1.464;2023-02-28T08:58:46;102597.19;;;6.90;100.00
29839;BME280;18669;53.356;-1.464;2023-02-28T09:01:13;102608.31;;;6.83;100.00
29839;BME280;18669;53.356;-1.464;2023-02-28T09:03:40;102605.63;;;6.80;100.00
29839;BME280;18669;53.356;-1.464;2023-02-28T09:06:10;102602.75;;;7.03;100.00
29839;BME280;18669;53.356;-1.464;2023-02-28T09:08:37;102609.50;;;6.94;100.00
29839;BME280;18669;53.356;-1.464;2023-02-28T09:11:05;102600.13;;;7.03;100.00
29839;BME280;18669;53.356;-1.464;2023-02-28T09:13:31;102602.59;;;6.98;100.00
29839;BME280;18669;53.356;-1.464;2023-02-28T09:16:02;102602.00;;;7.08;100.00
29839;BME280;18669;53.356;-1.464;2023-02-28T09:18:29;102602.97;;;7.12;100.00
29839;BME280;18669;53.356;-1.464;2023-02-28T09:20:56;102603.88;;;7.14;100.00
29839;BME280;18669;53.356;-1.464;2023-02-28T09:23:22;102605.38;;;7.04;100.00
29839;BME280;18669;53.356;-1.464;2023-02-28T09:25:50;102604.97;;;7.21;100.00
29839;BME280;18669;53.356;-1.464;2023-02-28T09:28:18;102609.97;;;7.13;100.00
29839;BME280;18669;53.356;-1.464;2023-02-28T09:30:46;102606.75;;;7.23;100.00
29839;BME280;18669;53.356;-1.464;2023-02-28T09:33:13;102606.78;;;7.25;100.00
29839;BME280;18669;53.356;-1.464;2023-02-28T09:35:39;102610.06;;;7.16;100.00
29839;BME280;18669;53.356;-1.464;2023-02-28T09:38:05;102612.06;;;7.26;100.00
29839;BME280;18669;53.356;-1.464;2023-02-28T09:40:37;102616.38;;;7.24;100.00
29839;BME280;18669;53.356;-1.464;2023-02-28T09:43:04;102615.44;;;7.22;100.00
29839;BME280;18669;53.356;-1.464;2023-02-28T09:45:40;102613.75;;;7.24;100.00
29839;BME280;18669;53.356;-1.464;2023-02-28T09:48:12;102611.25;;;7.29;100.00
29839;BME280;18669;53.356;-1.464;2023-02-28T09:50:52;102615.72;;;7.33;100.00
29839;BME280;18669;53.356;-1.464;2023-02-28T09:53:26;102612.38;;;7.39;100.00
29839;BME280;18669;53.356;-1.464;2023-02-28T09:56:24;102614.06;;;7.37;100.00
29839;BME280;18669;53.356;-1.464;2023-02-28T10:01:30;102618.88;;;7.55;100.00
29839;BME280;18669;53.356;-1.464;2023-02-28T10:04:05;102616.28;;;7.56;100.00
29839;BME280;18669;53.356;-1.464;2023-02-28T10:06:41;102624.03;;;7.52;100.00
29839;BME280;18669;53.356;-1.464;2023-02-28T10:09:31;102621.75;;;7.66;100.00
29839;BME280;18669;53.356;-1.464;2023-02-28T10:12:04;102628.34;;;7.50;100.00
29839;BME280;18669;53.356;-1.464;2023-02-28T10:14:33;102630.84;;;7.45;100.00
29839;BME280;18669;53.356;-1.464;2023-02-28T10:17:08;102633.34;;;7.39;100.00
29839;BME280;18669;53.356;-1.464;2023-02-28T10:20:04;102637.09;;;7.50;100.00
29839;BME280;18669;53.356;-1.464;2023-02-28T10:25:35;102634.53;;;7.52;100.00
29839;BME280;18669;53.356;-1.464;2023-02-28T10:30:36;102627.22;;;7.75;100.00
29839;BME280;18669;53.356;-1.464;2023-02-28T10:33:03;102623.69;;;7.74;100.00
29839;BME280;18669;53.356;-1.464;2023-02-28T10:35:29;102630.94;;;7.86;100.00
29839;BME280;18669;53.356;-1.464;2023-02-28T10:37:59;102619.97;;;8.03;100.00
29839;BME280;18669;53.356;-1.464;2023-02-28T10:40:35;102610.66;;;8.17;100.00
29839;BME280;18669;53.356;-1.464;2023-02-28T10:45:53;102608.81;;;8.55;100.00
29839;BME280;18669;53.356;-1.464;2023-02-28T10:53:16;102607.44;;;8.72;100.00
29839;BME280;18669;53.356;-1.464;2023-02-28T10:56:12;102598.97;;;8.89;100.00
29839;BME280;18669;53.356;-1.464;2023-02-28T10:58:58;102593.84;;;8.95;100.00
29839;BME280;18669;53.356;-1.464;2023-02-28T11:03:56;102604.03;;;8.78;100.00
29839;BME280;18669;53.356;-1.464;2023-02-28T11:06:26;102597.78;;;8.71;100.00
29839;BME280;18669;53.356;-1.464;2023-02-28T11:08:57;102600.94;;;8.55;100.00
29839;BME280;18669;53.356;-1.464;2023-02-28T11:11:26;102589.84;;;8.68;100.00
29839;BME280;18669;53.356;-1.464;2023-02-28T11:13:55;102603.91;;;8.72;100.00
29839;BME280;18669;53.356;-1.464;2023-02-28T11:16:22;102600.38;;;8.70;100.00
29839;BME280;18669;53.356;-1.464;2023-02-28T11:18:57;102597.72;;;8.68;100.00
29839;BME280;18669;53.356;-1.464;2023-02-28T11:21:28;102594.00;;;8.55;100.00
29839;BME280;18669;53.356;-1.464;2023-02-28T11:24:04;102598.75;;;8.33;100.00
29839;BME280;18669;53.356;-1.464;2023-02-28T11:26:47;102599.44;;;8.25;100.00
29839;BME280;18669;53.356;-1.464;2023-02-28T11:29:24;102601.09;;;8.19;100.00
29839;BME280;18669;53.356;-1.464;2023-02-28T11:32:20;102590.63;;;8.62;100.00
29839;BME280;18669;53.356;-1.464;2023-02-28T11:37:31;102587.25;;;8.70;100.00
29839;BME280;18669;53.356;-1.464;2023-02-28T11:39:58;102583.63;;;8.61;100.00
29839;BME280;18669;53.356;-1.464;2023-02-28T11:48:20;102567.50;;;9.44;100.00
29839;BME280;18669;53.356;-1.464;2023-02-28T11:50:57;102568.50;;;9.51;100.00
29839;BME280;18669;53.356;-1.464;2023-02-28T11:53:40;102564.97;;;9.49;100.00
29839;BME280;18669;53.356;-1.464;2023-02-28T11:56:37;102562.28;;;9.47;100.00
29839;BME280;18669;53.356;-1.464;2023-02-28T12:10:22;102551.78;;;8.92;100.00
29839;BME280;18669;53.356;-1.464;2023-02-28T12:13:18;102544.19;;;9.07;100.00
29839;BME280;18669;53.356;-1.464;2023-02-28T12:18:59;102536.25;;;9.64;100.00
29839;BME280;18669;53.356;-1.464;2023-02-28T12:21:56;102538.47;;;9.99;100.00
29839;BME280;18669;53.356;-1.464;2023-02-28T12:24:50;102525.25;;;9.93;100.00
29839;BME280;18669;53.356;-1.464;2023-02-28T12:27:22;102524.78;;;9.58;100.00
29839;BME280;18669;53.356;-1.464;2023-02-28T12:32:47;102531.28;;;9.23;100.00
29839;BME280;18669;53.356;-1.464;2023-02-28T12:35:19;102519.31;;;8.85;100.00
29839;BME280;18669;53.356;-1.464;2023-02-28T12:37:59;102517.81;;;9.00;100.00
29839;BME280;18669;53.356;-1.464;2023-02-28T12:40:47;102512.72;;;9.10;100.00
29839;BME280;18669;53.356;-1.464;2023-02-28T12:43:17;102504.69;;;9.00;100.00
29839;BME280;18669;53.356;-1.464;2023-02-28T12:45:51;102509.88;;;8.98;100.00
29839;BME280;18669;53.356;-1.464;2023-02-28T12:48:29;102504.69;;;9.01;100.00
29839;BME280;18669;53.356;-1.464;2023-02-28T12:50:57;102494.13;;;8.97;100.00
29839;BME280;18669;53.356;-1.464;2023-02-28T12:56:18;102476.81;;;9.11;100.00
29839;BME280;18669;53.356;-1.464;2023-02-28T12:58:50;102474.97;;;9.04;100.00
29839;BME280;18669;53.356;-1.464;2023-02-28T13:09:56;102460.03;;;8.47;100.00
29839;BME280;18669;53.356;-1.464;2023-02-28T13:12:23;102480.84;;;8.40;100.00
29839;BME280;18669;53.356;-1.464;2023-02-28T13:14:50;102466.03;;;8.42;100.00
29839;BME280;18669;53.356;-1.464;2023-02-28T13:17:24;102478.28;;;8.41;100.00
29839;BME280;18669;53.356;-1.464;2023-02-28T13:31:15;102474.56;;;8.30;100.00
29839;BME280;18669;53.356;-1.464;2023-02-28T13:36:27;102477.91;;;8.21;100.00
29839;BME280;18669;53.356;-1.464;2023-02-28T13:39:03;102464.94;;;8.30;100.00
29839;BME280;18669;53.356;-1.464;2023-02-28T13:41:48;102460.34;;;8.17;100.00
29839;BME280;18669;53.356;-1.464;2023-02-28T13:44:22;102459.81;;;8.35;100.00
29839;BME280;18669;53.356;-1.464;2023-02-28T13:49:28;102449.50;;;8.46;100.00
29839;BME280;18669;53.356;-1.464;2023-02-28T14:06:08;102452.00;;;8.40;100.00
29839;BME280;18669;53.356;-1.464;2023-02-28T14:08:36;102452.53;;;8.20;100.00
29839;BME280;18669;53.356;-1.464;2023-02-28T14:11:06;102445.59;;;8.24;100.00
29839;BME280;18669;53.356;-1.464;2023-02-28T14:13:46;102443.09;;;8.30;100.00
29839;BME280;18669;53.356;-1.464;2023-02-28T14:16:15;102445.25;;;8.05;100.00
29839;BME280;18669;53.356;-1.464;2023-02-28T14:18:58;102452.47;;;8.17;100.00
29839;BME280;18669;53.356;-1.464;2023-02-28T14:21:31;102454.19;;;8.16;100.00
29839;BME280;18669;53.356;-1.464;2023-02-28T14:32:15;102455.75;;;8.06;100.00
29839;BME280;18669;53.356;-1.464;2023-02-28T14:34:55;102452.78;;;8.34;100.00
29839;BME280;18669;53.356;-1.464;2023-02-28T14:37:38;102451.16;;;8.41;100.00
29839;BME280;18669;53.356;-1.464;2023-02-28T14:40:13;102451.81;;;8.30;100.00
29839;BME280;18669;53.356;-1.464;2023-02-28T14:42:47;102448.41;;;8.33;100.00
29839;BME280;18669;53.356;-1.464;2023-02-28T14:45:18;102450.16;;;8.34;100.00
29839;BME280;18669;53.356;-1.464;2023-02-28T14:47:46;102451.03;;;8.33;100.00
29839;BME280;18669;53.356;-1.464;2023-02-28T14:50:29;102444.47;;;8.57;100.00
29839;BME280;18669;53.356;-1.464;2023-02-28T14:52:56;102444.88;;;8.32;100.00
29839;BME280;18669;53.356;-1.464;2023-02-28T14:55:26;102441.50;;;8.38;100.00
29839;BME280;18669;53.356;-1.464;2023-02-28T14:57:58;102439.75;;;8.39;100.00
29839;BME280;18669;53.356;-1.464;2023-02-28T15:00:30;102436.09;;;8.30;100.00
29839;BME280;18669;53.356;-1.464;2023-02-28T15:02:59;102433.28;;;8.19;100.00
29839;BME280;18669;53.356;-1.464;2023-02-28T15:05:31;102445.69;;;8.28;100.00
29839;BME280;18669;53.356;-1.464;2023-02-28T15:08:17;102425.72;;;8.36;100.00
29839;BME280;18669;53.356;-1.464;2023-02-28T15:10:45;102427.47;;;8.38;100.00
29839;BME280;18669;53.356;-1.464;2023-02-28T15:13:13;102418.81;;;8.40;100.00